SBMTSBSJ

Guest
Details From SBMT - MARTE
To SBSJ - Sao Jose Dos Campos
Flight Number -
Tags generated
Created
Modified
Stats Distance 46 nm / 85 km
Max Altitude 5,400 ft / 1,646 m
Waypoints 3
Social Downloads 6
Likes 0
Share

Download

Looking for another format? Having issues loading an existing format? Contact us
Advertisement - Login to hide

Notes

Basic altitude profile: - Ascent Rate: 700ft/min - Ascent Speed: 70kts - Cruise Altitude: 8000ft - Cruise Speed: 100kts - Descent Rate: 1500ft/min - Descent Speed: 60kts Options: - Use NATs: no - Use PACOTS: no - Use low airways: no - Use high airways: yes

Route

SBMT BCO SBSJ

ID Type Via Altitude (ft/m) Position (lat/lon) Dist (leg/tot) Name
O SBMT APT - 0 / 0 -23.50912 / -46.63775 - / 0 nm MARTE
BCO VOR - 5,400 / 1,646 -23.40633 / -46.38550 15 / 15 nm BONSUCESSO VOR-DME
O SBSJ APT - 0 / 0 -23.22817 / -45.86274 30 / 45 nm Sao Jose Dos Campos

Altitude Profile

Advertisement - Login to hide

SBMT

Details ICAO SBMT
Name Campo de Marte
Region Brazil
Timezone America/Sao_Paulo (UTC-3.0)
Stats Elevation 2,371 ft / 723 m (AMSL)
Location -23.509100° -46.637700°
Runways 1
Magnetic Variation 22.104° W

METAR

SBMT 271800Z 29010KT 9999 SCT040 31/20 Q1013

Decode

TAF

Not found

Departure Runways

ID Width Length Bearing (true/mag) Surface Threshold Overrun Markings Lighting
12 148 ft / 45 m 5,236 ft / 1,596 m 100.29° / 122.40° ASPHALT 978 ft / 298 m 0 ft / 0 m VISUAL EDGE THRESHOLD
30 148 ft / 45 m 5,236 ft / 1,596 m 280.29° / 302.39° ASPHALT 489 ft / 149 m 0 ft / 0 m VISUAL EDGE THRESHOLD

SBSJ

Details ICAO SBSJ (SJK)
Name Sao Jose Dos Campos Intl
Region Brazil
Timezone America/Sao_Paulo (UTC-3.0)
Stats Elevation 2,123 ft / 647 m (AMSL)
Location -23.228200° -45.862700°
Runways 1
Magnetic Variation 22.453° W

METAR

SBSJ 271900Z 24009KT 9999 SCT050 FEW060TCU 33/22 Q1012

Decode

TAF

TAF SBSJ 271545Z 2718/2806 35006KT 8000 BKN025 TX31/2718Z TN21/2806Z TEMPO 2718/2721 13010KT TS BKN017 FEW045CB BECMG 2721/2723 12006KT BECMG 2801/2803 09004KT BKN020 RMK PGM

Decode

Destination Runways

ID Width Length Bearing (true/mag) Surface Threshold Overrun Markings Lighting
15 148 ft / 45 m 8,800 ft / 2,682 m 135.07° / 157.53° ASPHALT 0 ft / 0 m 0 ft / 0 m PREC-APP EDGE THRESHOLD MALSF
33 148 ft / 45 m 8,800 ft / 2,682 m 315.07° / 337.52° ASPHALT 0 ft / 0 m 1,060 ft / 323 m PREC-APP EDGE THRESHOLD

Approach Navaids

Runway Type Ident Frequency Range Bearing (true/mag) Slope Elevation
15 MM MM - - 135.13° / 157.58 ° - 2,120 ft / 646 m (AMSL)
15 DME ISJ 110.30 MHz 18 nm / 33 km - - 2,120 ft / 646 m (AMSL)
15 GS ISJ 110.30 MHz 10 nm / 19 km 135.25° / 157.70 ° 3.00° 2,120 ft / 646 m (AMSL)
15 LOC-ILS ISJ 110.30 MHz 18 nm / 33 km 134.95° / 157.40 ° - 2,120 ft / 646 m (AMSL)
15 OM OM - - 135.13° / 157.58 ° - 2,120 ft / 646 m (AMSL)

Popular Alternatives